AFR137 WAMM-WASS
Flight info
| Callsign | AFR137 |
|---|---|
| Flight time | 1h 3m |
| Altitude | 35000 |
| Route | SOSOK W67 FIMBA |
| Aircraft | B736/M-VGDW/C |
Departure
| Time | 2026-04-14 12:43 |
|---|---|
| Airport | Sam Ratulangi International Airport (WAMM) |
Arrival
| Time | 2026-04-14 13:47 |
|---|---|
| Airport | Domine Eduard Osok Airport (WASS) |
| Time | Latitude | Longitude | Altitude | Speed | Heading |
|---|---|---|---|---|---|
| 2026-04-14 12:35 | 1.54071 | 124.92341 | 336 ft | 0 kts | 273° |
| 2026-04-14 12:37 | 1.54071 | 124.92346 | 336 ft | 1 kts | 264° |
| 2026-04-14 12:37 | 1.54071 | 124.92351 | 332 ft | 1 kts | 254° |
| 2026-04-14 12:38 | 1.54076 | 124.92361 | 336 ft | 1 kts | 233° |
| 2026-04-14 12:38 | 1.54079 | 124.92365 | 332 ft | 1 kts | 223° |
| 2026-04-14 12:38 | 1.54083 | 124.92369 | 332 ft | 1 kts | 212° |
| 2026-04-14 12:39 | 1.54088 | 124.92371 | 333 ft | 1 kts | 201° |
| 2026-04-14 12:39 | 1.54093 | 124.92373 | 332 ft | 1 kts | 191° |
| 2026-04-14 12:39 | 1.54097 | 124.92374 | 332 ft | 0 kts | 183° |
| 2026-04-14 12:41 | 1.54074 | 124.92381 | 332 ft | 8 kts | 153° |
| 2026-04-14 12:41 | 1.54018 | 124.92408 | 336 ft | 10 kts | 156° |
| 2026-04-14 12:41 | 1.53929 | 124.92434 | 336 ft | 16 kts | 176° |
| 2026-04-14 12:41 | 1.53822 | 124.92431 | 336 ft | 15 kts | 181° |
| 2026-04-14 12:42 | 1.53745 | 124.92476 | 336 ft | 14 kts | 98° |
| 2026-04-14 12:42 | 1.53754 | 124.92571 | 334 ft | 14 kts | 55° |
| 2026-04-14 12:42 | 1.53842 | 124.92593 | 336 ft | 14 kts | 4° |
| 2026-04-14 12:42 | 1.54269 | 124.92610 | 336 ft | 113 kts | 2° |
| 2026-04-14 12:43 | 1.55313 | 124.92637 | 630 ft | 174 kts | 2° |
| 2026-04-14 12:43 | 1.56612 | 124.92669 | 1634 ft | 195 kts | 355° |
| 2026-04-14 12:43 | 1.58003 | 124.92483 | 2738 ft | 210 kts | 351° |
| 2026-04-14 12:43 | 1.59400 | 124.92207 | 4116 ft | 194 kts | 343° |
| 2026-04-14 12:44 | 1.60712 | 124.91749 | 5036 ft | 212 kts | 337° |
| 2026-04-14 12:44 | 1.62150 | 124.91193 | 5370 ft | 234 kts | 343° |
| 2026-04-14 12:44 | 1.63809 | 124.90827 | 5706 ft | 249 kts | 347° |
| 2026-04-14 12:45 | 1.67283 | 124.90324 | 6813 ft | 258 kts | 4° |
| 2026-04-14 12:45 | 1.68991 | 124.90845 | 7398 ft | 263 kts | 22° |
| 2026-04-14 12:45 | 1.70640 | 124.91655 | 7982 ft | 266 kts | 24° |
| 2026-04-14 12:45 | 1.72319 | 124.92513 | 8586 ft | 269 kts | 24° |
| 2026-04-14 12:46 | 1.73975 | 124.93359 | 9210 ft | 272 kts | 24° |
| 2026-04-14 12:46 | 1.75674 | 124.94219 | 9858 ft | 275 kts | 24° |
| 2026-04-14 12:46 | 1.77399 | 124.95086 | 10434 ft | 282 kts | 24° |
| 2026-04-14 12:46 | 1.79238 | 124.96003 | 10624 ft | 309 kts | 24° |
| 2026-04-14 12:47 | 1.81259 | 124.97007 | 10828 ft | 337 kts | 24° |
| 2026-04-14 12:47 | 1.83429 | 124.98116 | 11007 ft | 363 kts | 29° |
| 2026-04-14 12:47 | 1.85339 | 124.99862 | 11359 ft | 384 kts | 52° |
| 2026-04-14 12:47 | 1.86471 | 125.02310 | 12013 ft | 393 kts | 77° |
| 2026-04-14 12:48 | 1.86521 | 125.05019 | 12759 ft | 397 kts | 102° |
| 2026-04-14 12:48 | 1.85512 | 125.07582 | 13547 ft | 398 kts | 119° |
| 2026-04-14 12:48 | 1.84170 | 125.10016 | 14211 ft | 402 kts | 120° |
| 2026-04-14 12:48 | 1.82793 | 125.12473 | 14837 ft | 407 kts | 120° |
| 2026-04-14 12:49 | 1.81427 | 125.14973 | 15503 ft | 410 kts | 119° |
| 2026-04-14 12:49 | 1.80094 | 125.17490 | 16178 ft | 413 kts | 118° |
| 2026-04-14 12:49 | 1.78752 | 125.20059 | 16837 ft | 416 kts | 118° |
| 2026-04-14 12:49 | 1.77412 | 125.22598 | 17446 ft | 420 kts | 119° |
| 2026-04-14 12:50 | 1.76000 | 125.25168 | 18047 ft | 424 kts | 120° |
| 2026-04-14 12:50 | 1.73075 | 125.30379 | 19083 ft | 431 kts | 121° |
| 2026-04-14 12:50 | 1.71618 | 125.32972 | 19567 ft | 434 kts | 120° |
| 2026-04-14 12:51 | 1.70141 | 125.35612 | 20058 ft | 437 kts | 120° |
| 2026-04-14 12:51 | 1.68641 | 125.38299 | 20539 ft | 440 kts | 120° |
| 2026-04-14 12:51 | 1.67153 | 125.40970 | 21008 ft | 443 kts | 121° |
| 2026-04-14 12:51 | 1.65651 | 125.43670 | 21465 ft | 446 kts | 121° |
| 2026-04-14 12:52 | 1.64131 | 125.46403 | 21908 ft | 449 kts | 121° |
| 2026-04-14 12:52 | 1.62629 | 125.49106 | 22346 ft | 452 kts | 121° |
| 2026-04-14 12:52 | 1.61092 | 125.51871 | 22773 ft | 455 kts | 121° |
| 2026-04-14 12:52 | 1.59549 | 125.54647 | 23187 ft | 458 kts | 121° |
| 2026-04-14 12:53 | 1.57997 | 125.57438 | 23571 ft | 461 kts | 121° |
| 2026-04-14 12:53 | 1.56432 | 125.60251 | 23898 ft | 464 kts | 121° |
| 2026-04-14 12:53 | 1.54865 | 125.63069 | 24233 ft | 466 kts | 121° |
| 2026-04-14 12:53 | 1.53278 | 125.65922 | 24563 ft | 468 kts | 121° |
| 2026-04-14 12:54 | 1.51691 | 125.68777 | 24881 ft | 470 kts | 121° |
| 2026-04-14 12:54 | 1.50098 | 125.71641 | 25191 ft | 473 kts | 121° |
| 2026-04-14 12:54 | 1.48492 | 125.74528 | 25500 ft | 475 kts | 120° |
| 2026-04-14 12:54 | 1.46911 | 125.77371 | 25797 ft | 477 kts | 120° |
| 2026-04-14 12:55 | 1.45288 | 125.80289 | 26078 ft | 479 kts | 120° |
| 2026-04-14 12:55 | 1.43671 | 125.83196 | 26361 ft | 481 kts | 120° |
| 2026-04-14 12:55 | 1.42033 | 125.86140 | 26631 ft | 483 kts | 120° |
| 2026-04-14 12:55 | 1.40413 | 125.89051 | 26896 ft | 485 kts | 120° |
| 2026-04-14 12:56 | 1.38751 | 125.92041 | 27147 ft | 487 kts | 120° |
| 2026-04-14 12:56 | 1.37105 | 125.94999 | 27397 ft | 489 kts | 120° |
| 2026-04-14 12:56 | 1.35472 | 125.97934 | 27630 ft | 491 kts | 120° |
| 2026-04-14 12:56 | 1.33807 | 126.00927 | 27857 ft | 492 kts | 120° |
| 2026-04-14 12:57 | 1.32144 | 126.03916 | 28084 ft | 494 kts | 120° |
| 2026-04-14 12:57 | 1.30462 | 126.06939 | 28300 ft | 496 kts | 120° |
| 2026-04-14 12:57 | 1.28786 | 126.09952 | 28517 ft | 497 kts | 120° |
| 2026-04-14 12:57 | 1.27104 | 126.12974 | 28712 ft | 499 kts | 120° |
| 2026-04-14 12:58 | 1.25143 | 126.15838 | 28853 ft | 499 kts | 134° |
| 2026-04-14 12:58 | 1.22570 | 126.18091 | 29085 ft | 497 kts | 143° |
| 2026-04-14 12:58 | 1.19838 | 126.20178 | 29385 ft | 495 kts | 144° |
| 2026-04-14 12:58 | 1.17075 | 126.22250 | 29675 ft | 495 kts | 144° |
| 2026-04-14 12:59 | 1.14314 | 126.24329 | 29954 ft | 495 kts | 144° |
| 2026-04-14 12:59 | 1.11591 | 126.26403 | 30218 ft | 494 kts | 144° |
| 2026-04-14 12:59 | 1.08861 | 126.28507 | 30527 ft | 493 kts | 143° |
| 2026-04-14 12:59 | 1.06167 | 126.30597 | 30856 ft | 491 kts | 143° |
| 2026-04-14 13:00 | 1.03484 | 126.32687 | 31198 ft | 489 kts | 143° |
| 2026-04-14 13:00 | 1.00806 | 126.34774 | 31548 ft | 488 kts | 143° |
| 2026-04-14 13:00 | 0.98133 | 126.36857 | 31904 ft | 487 kts | 143° |
| 2026-04-14 13:00 | 0.95465 | 126.38933 | 32274 ft | 485 kts | 143° |
| 2026-04-14 13:01 | 0.92792 | 126.41013 | 32666 ft | 484 kts | 143° |
| 2026-04-14 13:01 | 0.90160 | 126.43060 | 33064 ft | 483 kts | 143° |
| 2026-04-14 13:01 | 0.87475 | 126.45148 | 33471 ft | 482 kts | 143° |
| 2026-04-14 13:01 | 0.84854 | 126.47186 | 33877 ft | 481 kts | 143° |
| 2026-04-14 13:02 | 0.82239 | 126.49220 | 34263 ft | 479 kts | 143° |
| 2026-04-14 13:02 | 0.79636 | 126.51287 | 34709 ft | 476 kts | 139° |
| 2026-04-14 13:02 | 0.77468 | 126.53791 | 34889 ft | 479 kts | 123° |
| 2026-04-14 13:02 | 0.76079 | 126.56799 | 34939 ft | 479 kts | 111° |
| 2026-04-14 13:03 | 0.74979 | 126.59959 | 34918 ft | 480 kts | 110° |
| 2026-04-14 13:03 | 0.72876 | 126.66303 | 34925 ft | 481 kts | 109° |
| 2026-04-14 13:04 | 0.70746 | 126.72643 | 34920 ft | 482 kts | 110° |
| 2026-04-14 13:04 | 0.68565 | 126.78979 | 34912 ft | 482 kts | 110° |
| 2026-04-14 13:05 | 0.66374 | 126.85279 | 34919 ft | 482 kts | 110° |
| 2026-04-14 13:05 | 0.64170 | 126.91608 | 34921 ft | 482 kts | 110° |
| 2026-04-14 13:06 | 0.61968 | 126.97941 | 34915 ft | 482 kts | 110° |
| 2026-04-14 13:06 | 0.59778 | 127.04241 | 34917 ft | 481 kts | 110° |
| 2026-04-14 13:07 | 0.57580 | 127.10562 | 34920 ft | 481 kts | 110° |
| 2026-04-14 13:07 | 0.55754 | 127.15817 | 34917 ft | 481 kts | 110° |
| 2026-04-14 13:08 | 0.53557 | 127.22137 | 34921 ft | 481 kts | 110° |
| 2026-04-14 13:08 | 0.51362 | 127.28451 | 34920 ft | 480 kts | 110° |
| 2026-04-14 13:09 | 0.49183 | 127.34718 | 34922 ft | 480 kts | 110° |
| 2026-04-14 13:09 | 0.46988 | 127.41031 | 34927 ft | 480 kts | 110° |
| 2026-04-14 13:10 | 0.44797 | 127.47336 | 34918 ft | 480 kts | 110° |
| 2026-04-14 13:10 | 0.42600 | 127.53654 | 34928 ft | 480 kts | 110° |
| 2026-04-14 13:11 | 0.40412 | 127.59946 | 34926 ft | 480 kts | 110° |
| 2026-04-14 13:11 | 0.38233 | 127.66213 | 34928 ft | 480 kts | 110° |
| 2026-04-14 13:12 | 0.36026 | 127.72559 | 34922 ft | 480 kts | 110° |
| 2026-04-14 13:12 | 0.33847 | 127.78827 | 34923 ft | 480 kts | 110° |
| 2026-04-14 13:13 | 0.31649 | 127.85150 | 34925 ft | 480 kts | 110° |
| 2026-04-14 13:13 | 0.29453 | 127.91465 | 34925 ft | 480 kts | 110° |
| 2026-04-14 13:14 | 0.27262 | 127.97764 | 34921 ft | 480 kts | 110° |
| 2026-04-14 13:14 | 0.25074 | 128.04057 | 34921 ft | 480 kts | 110° |
| 2026-04-14 13:15 | 0.22900 | 128.10308 | 34915 ft | 479 kts | 110° |
| 2026-04-14 13:15 | 0.20713 | 128.16598 | 34917 ft | 479 kts | 110° |
| 2026-04-14 13:16 | 0.18522 | 128.22898 | 34913 ft | 478 kts | 110° |
| 2026-04-14 13:16 | 0.16342 | 128.29165 | 34915 ft | 478 kts | 110° |
| 2026-04-14 13:17 | 0.14170 | 128.35412 | 34914 ft | 478 kts | 110° |
| 2026-04-14 13:17 | 0.11989 | 128.41684 | 34912 ft | 477 kts | 110° |
| 2026-04-14 13:18 | 0.09807 | 128.47958 | 34913 ft | 477 kts | 110° |
| 2026-04-14 13:18 | 0.07622 | 128.54238 | 34916 ft | 477 kts | 110° |
| 2026-04-14 13:19 | 0.05461 | 128.60453 | 34910 ft | 477 kts | 110° |
| 2026-04-14 13:19 | 0.03285 | 128.66711 | 34909 ft | 477 kts | 110° |
| 2026-04-14 13:20 | 0.01102 | 128.72988 | 34915 ft | 477 kts | 110° |
| 2026-04-14 13:20 | -0.01074 | 128.79244 | 34910 ft | 477 kts | 110° |
| 2026-04-14 13:21 | -0.03250 | 128.85502 | 34910 ft | 477 kts | 110° |
| 2026-04-14 13:21 | -0.05435 | 128.91784 | 34911 ft | 477 kts | 110° |
| 2026-04-14 13:22 | -0.07611 | 128.98041 | 34913 ft | 477 kts | 110° |
| 2026-04-14 13:22 | -0.09769 | 129.04249 | 34910 ft | 476 kts | 110° |
| 2026-04-14 13:23 | -0.11946 | 129.10510 | 34909 ft | 476 kts | 110° |
| 2026-04-14 13:23 | -0.14115 | 129.16748 | 34915 ft | 475 kts | 110° |
| 2026-04-14 13:24 | -0.16315 | 129.22967 | 34908 ft | 475 kts | 111° |
| 2026-04-14 13:24 | -0.19652 | 129.32301 | 34912 ft | 474 kts | 111° |
| 2026-04-14 13:25 | -0.21859 | 129.38490 | 34912 ft | 474 kts | 111° |
| 2026-04-14 13:26 | -0.26280 | 129.50913 | 34914 ft | 474 kts | 111° |
| 2026-04-14 13:26 | -0.28487 | 129.57115 | 34915 ft | 475 kts | 111° |
| 2026-04-14 13:27 | -0.30702 | 129.63337 | 34914 ft | 475 kts | 111° |
| 2026-04-14 13:27 | -0.32920 | 129.69571 | 34911 ft | 475 kts | 111° |
| 2026-04-14 13:28 | -0.35135 | 129.75794 | 34916 ft | 476 kts | 111° |
| 2026-04-14 13:28 | -0.37352 | 129.82021 | 34193 ft | 484 kts | 111° |
| 2026-04-14 13:29 | -0.38487 | 129.85210 | 33310 ft | 483 kts | 111° |
| 2026-04-14 13:29 | -0.39609 | 129.88365 | 32298 ft | 485 kts | 111° |
| 2026-04-14 13:29 | -0.40742 | 129.91548 | 31253 ft | 487 kts | 111° |
| 2026-04-14 13:29 | -0.41880 | 129.94746 | 30159 ft | 490 kts | 111° |
| 2026-04-14 13:30 | -0.43013 | 129.97932 | 28836 ft | 494 kts | 111° |
| 2026-04-14 13:30 | -0.44165 | 130.01168 | 27547 ft | 496 kts | 111° |
| 2026-04-14 13:30 | -0.45327 | 130.04432 | 26278 ft | 497 kts | 111° |
| 2026-04-14 13:30 | -0.46479 | 130.07672 | 25185 ft | 495 kts | 111° |
| 2026-04-14 13:31 | -0.47631 | 130.10912 | 24174 ft | 491 kts | 111° |
| 2026-04-14 13:31 | -0.48755 | 130.14073 | 23165 ft | 487 kts | 112° |
| 2026-04-14 13:31 | -0.49892 | 130.17272 | 22083 ft | 483 kts | 112° |
| 2026-04-14 13:31 | -0.51016 | 130.20433 | 21112 ft | 476 kts | 112° |
| 2026-04-14 13:32 | -0.52117 | 130.23528 | 20172 ft | 471 kts | 112° |
| 2026-04-14 13:32 | -0.53208 | 130.26595 | 19243 ft | 466 kts | 112° |
| 2026-04-14 13:32 | -0.54292 | 130.29640 | 18322 ft | 463 kts | 112° |
| 2026-04-14 13:32 | -0.55367 | 130.32662 | 17280 ft | 459 kts | 111° |
| 2026-04-14 13:33 | -0.56428 | 130.35641 | 16344 ft | 455 kts | 111° |
| 2026-04-14 13:33 | -0.57485 | 130.38613 | 15424 ft | 450 kts | 111° |
| 2026-04-14 13:33 | -0.58517 | 130.41513 | 14533 ft | 446 kts | 111° |
| 2026-04-14 13:33 | -0.59556 | 130.44432 | 13666 ft | 443 kts | 111° |
| 2026-04-14 13:34 | -0.61590 | 130.50150 | 12019 ft | 430 kts | 111° |
| 2026-04-14 13:34 | -0.62584 | 130.52946 | 11271 ft | 423 kts | 111° |
| 2026-04-14 13:34 | -0.63555 | 130.55677 | 10894 ft | 409 kts | 111° |
| 2026-04-14 13:35 | -0.64479 | 130.58277 | 10751 ft | 389 kts | 111° |
| 2026-04-14 13:35 | -0.65372 | 130.60791 | 10614 ft | 372 kts | 111° |
| 2026-04-14 13:35 | -0.66221 | 130.63177 | 10461 ft | 357 kts | 111° |
| 2026-04-14 13:35 | -0.67033 | 130.65462 | 10311 ft | 344 kts | 111° |
| 2026-04-14 13:36 | -0.67827 | 130.67691 | 10190 ft | 332 kts | 111° |
| 2026-04-14 13:36 | -0.68580 | 130.69810 | 10162 ft | 317 kts | 111° |
| 2026-04-14 13:36 | -0.69292 | 130.71812 | 10145 ft | 303 kts | 111° |
| 2026-04-14 13:36 | -0.69998 | 130.73795 | 9923 ft | 298 kts | 111° |
| 2026-04-14 13:37 | -0.70600 | 130.75486 | 9759 ft | 289 kts | 111° |
| 2026-04-14 13:37 | -0.71258 | 130.77335 | 9509 ft | 276 kts | 111° |
| 2026-04-14 13:37 | -0.71888 | 130.79108 | 9250 ft | 266 kts | 111° |
| 2026-04-14 13:37 | -0.72497 | 130.80818 | 8985 ft | 257 kts | 111° |
| 2026-04-14 13:38 | -0.73090 | 130.82485 | 8722 ft | 249 kts | 111° |
| 2026-04-14 13:38 | -0.73661 | 130.84091 | 8466 ft | 243 kts | 111° |
| 2026-04-14 13:38 | -0.74225 | 130.85675 | 8217 ft | 239 kts | 111° |
| 2026-04-14 13:38 | -0.74771 | 130.87210 | 7982 ft | 238 kts | 111° |
| 2026-04-14 13:39 | -0.75334 | 130.88790 | 7737 ft | 236 kts | 111° |
| 2026-04-14 13:39 | -0.75949 | 130.90271 | 7490 ft | 233 kts | 123° |
| 2026-04-14 13:39 | -0.76838 | 130.91621 | 7253 ft | 231 kts | 129° |
| 2026-04-14 13:39 | -0.77771 | 130.92920 | 7036 ft | 230 kts | 129° |
| 2026-04-14 13:40 | -0.78700 | 130.94214 | 6802 ft | 229 kts | 129° |
| 2026-04-14 13:40 | -0.79627 | 130.95519 | 6565 ft | 229 kts | 128° |
| 2026-04-14 13:40 | -0.80535 | 130.96809 | 6344 ft | 228 kts | 128° |
| 2026-04-14 13:40 | -0.81447 | 130.98114 | 6100 ft | 227 kts | 128° |
| 2026-04-14 13:41 | -0.82347 | 130.99409 | 5860 ft | 227 kts | 128° |
| 2026-04-14 13:41 | -0.83234 | 131.00688 | 5625 ft | 226 kts | 128° |
| 2026-04-14 13:41 | -0.84125 | 131.01977 | 5380 ft | 225 kts | 128° |
| 2026-04-14 13:41 | -0.85011 | 131.03258 | 5139 ft | 223 kts | 128° |
| 2026-04-14 13:42 | -0.85888 | 131.04537 | 4895 ft | 221 kts | 124° |
| 2026-04-14 13:42 | -0.86445 | 131.05969 | 4655 ft | 222 kts | 106° |
| 2026-04-14 13:42 | -0.86835 | 131.07447 | 4352 ft | 221 kts | 107° |
| 2026-04-14 13:42 | -0.87256 | 131.08947 | 4013 ft | 223 kts | 107° |
| 2026-04-14 13:43 | -0.87678 | 131.10429 | 3678 ft | 221 kts | 108° |
| 2026-04-14 13:43 | -0.88098 | 131.11893 | 3344 ft | 218 kts | 108° |
| 2026-04-14 13:43 | -0.88449 | 131.13339 | 3000 ft | 217 kts | 98° |
| 2026-04-14 13:43 | -0.88559 | 131.14834 | 2670 ft | 214 kts | 94° |
| 2026-04-14 13:44 | -0.88633 | 131.16297 | 2317 ft | 206 kts | 94° |
| 2026-04-14 13:44 | -0.88709 | 131.17693 | 1982 ft | 194 kts | 94° |
| 2026-04-14 13:44 | -0.88786 | 131.18998 | 1658 ft | 182 kts | 94° |
| 2026-04-14 13:44 | -0.88856 | 131.20204 | 1348 ft | 166 kts | 95° |
| 2026-04-14 13:45 | -0.88922 | 131.21292 | 1015 ft | 151 kts | 95° |
| 2026-04-14 13:45 | -0.88987 | 131.22320 | 869 ft | 147 kts | 96° |
| 2026-04-14 13:45 | -0.89054 | 131.23350 | 807 ft | 150 kts | 96° |
| 2026-04-14 13:45 | -0.89120 | 131.24369 | 739 ft | 149 kts | 94° |
| 2026-04-14 13:46 | -0.89174 | 131.25397 | 598 ft | 148 kts | 92° |
| 2026-04-14 13:46 | -0.89223 | 131.26437 | 346 ft | 149 kts | 96° |
| 2026-04-14 13:46 | -0.89313 | 131.27450 | 125 ft | 144 kts | 96° |
| 2026-04-14 13:46 | -0.89382 | 131.28414 | 24 ft | 130 kts | 94° |
| 2026-04-14 13:47 | -0.89409 | 131.28850 | 24 ft | 25 kts | 93° |
| 2026-04-14 13:47 | -0.89365 | 131.28912 | 22 ft | 9 kts | 354° |
| 2026-04-14 13:47 | -0.89301 | 131.28911 | 21 ft | 9 kts | 7° |
| 2026-04-14 13:47 | -0.89239 | 131.28923 | 20 ft | 9 kts | 26° |
| 2026-04-14 13:48 | -0.89223 | 131.28980 | 20 ft | 9 kts | 96° |
| 2026-04-14 13:48 | -0.89230 | 131.29040 | 20 ft | 9 kts | 96° |
| 2026-04-14 13:48 | -0.89207 | 131.29079 | 20 ft | 6 kts | 6° |
| 2026-04-14 13:48 | -0.89169 | 131.29081 | 23 ft | 2 kts | 5° |